sensor_id;sensor_type;location;lat;lon;timestamp;P1;durP1;ratioP1;P2;durP2;ratioP2
41323;SDS011;27073;51.128;4.220;2023-01-24T00:00:51;23.80;;;21.27;;
41323;SDS011;27073;51.128;4.220;2023-01-24T00:03:17;25.90;;;22.88;;
41323;SDS011;27073;51.128;4.220;2023-01-24T00:05:43;25.88;;;22.20;;
41323;SDS011;27073;51.128;4.220;2023-01-24T00:08:12;26.88;;;23.30;;
41323;SDS011;27073;51.128;4.220;2023-01-24T00:10:39;26.85;;;23.95;;
41323;SDS011;27073;51.128;4.220;2023-01-24T00:13:04;27.17;;;22.60;;
41323;SDS011;27073;51.128;4.220;2023-01-24T00:15:31;28.15;;;23.00;;
41323;SDS011;27073;51.128;4.220;2023-01-24T00:17:57;27.42;;;23.80;;
41323;SDS011;27073;51.128;4.220;2023-01-24T00:20:23;25.50;;;22.42;;
41323;SDS011;27073;51.128;4.220;2023-01-24T00:22:49;24.30;;;21.70;;
41323;SDS011;27073;51.128;4.220;2023-01-24T00:25:14;25.77;;;22.15;;
41323;SDS011;27073;51.128;4.220;2023-01-24T00:27:40;28.77;;;23.50;;
41323;SDS011;27073;51.128;4.220;2023-01-24T00:30:06;27.05;;;24.15;;
41323;SDS011;27073;51.128;4.220;2023-01-24T00:32:32;27.30;;;23.50;;
41323;SDS011;27073;51.128;4.220;2023-01-24T00:34:58;27.05;;;23.02;;
41323;SDS011;27073;51.128;4.220;2023-01-24T00:37:25;25.70;;;22.15;;
41323;SDS011;27073;51.128;4.220;2023-01-24T00:39:51;26.95;;;23.98;;
41323;SDS011;27073;51.128;4.220;2023-01-24T00:42:17;26.52;;;23.65;;
41323;SDS011;27073;51.128;4.220;2023-01-24T00:44:42;26.10;;;23.15;;
41323;SDS011;27073;51.128;4.220;2023-01-24T00:47:08;28.95;;;24.50;;
41323;SDS011;27073;51.128;4.220;2023-01-24T00:49:34;28.13;;;24.08;;
41323;SDS011;27073;51.128;4.220;2023-01-24T00:52:00;29.33;;;25.50;;
41323;SDS011;27073;51.128;4.220;2023-01-24T00:54:25;29.17;;;24.10;;
41323;SDS011;27073;51.128;4.220;2023-01-24T00:56:51;27.52;;;24.55;;
41323;SDS011;27073;51.128;4.220;2023-01-24T00:59:17;27.30;;;24.08;;
41323;SDS011;27073;51.128;4.220;2023-01-24T01:01:43;26.00;;;23.17;;
41323;SDS011;27073;51.128;4.220;2023-01-24T01:04:09;27.55;;;24.55;;
41323;SDS011;27073;51.128;4.220;2023-01-24T01:06:35;28.75;;;24.90;;
41323;SDS011;27073;51.128;4.220;2023-01-24T01:09:01;28.02;;;24.80;;
41323;SDS011;27073;51.128;4.220;2023-01-24T01:11:28;28.77;;;24.67;;
41323;SDS011;27073;51.128;4.220;2023-01-24T01:13:57;28.03;;;23.70;;
41323;SDS011;27073;51.128;4.220;2023-01-24T01:16:23;30.83;;;25.50;;
41323;SDS011;27073;51.128;4.220;2023-01-24T01:18:50;30.33;;;25.38;;
41323;SDS011;27073;51.128;4.220;2023-01-24T01:21:19;29.92;;;25.23;;
41323;SDS011;27073;51.128;4.220;2023-01-24T01:23:47;30.88;;;26.33;;
41323;SDS011;27073;51.128;4.220;2023-01-24T01:26:14;29.60;;;26.13;;
41323;SDS011;27073;51.128;4.220;2023-01-24T01:28:42;30.35;;;26.52;;
41323;SDS011;27073;51.128;4.220;2023-01-24T01:31:08;30.65;;;26.17;;
41323;SDS011;27073;51.128;4.220;2023-01-24T01:33:35;29.55;;;24.90;;
41323;SDS011;27073;51.128;4.220;2023-01-24T01:36:00;31.27;;;25.70;;
41323;SDS011;27073;51.128;4.220;2023-01-24T01:38:27;29.65;;;26.45;;
41323;SDS011;27073;51.128;4.220;2023-01-24T01:40:54;30.27;;;26.00;;
41323;SDS011;27073;51.128;4.220;2023-01-24T01:43:21;30.17;;;25.20;;
41323;SDS011;27073;51.128;4.220;2023-01-24T01:45:51;31.85;;;26.33;;
41323;SDS011;27073;51.128;4.220;2023-01-24T01:48:19;29.75;;;24.98;;
41323;SDS011;27073;51.128;4.220;2023-01-24T01:53:54;32.83;;;26.35;;
41323;SDS011;27073;51.128;4.220;2023-01-24T01:56:32;32.13;;;25.52;;
41323;SDS011;27073;51.128;4.220;2023-01-24T01:59:07;30.70;;;25.55;;
41323;SDS011;27073;51.128;4.220;2023-01-24T02:01:40;30.27;;;26.27;;
41323;SDS011;27073;51.128;4.220;2023-01-24T02:04:14;29.25;;;25.10;;
41323;SDS011;27073;51.128;4.220;2023-01-24T02:09:43;31.20;;;26.73;;
41323;SDS011;27073;51.128;4.220;2023-01-24T02:12:18;31.13;;;27.05;;
41323;SDS011;27073;51.128;4.220;2023-01-24T02:14:53;31.67;;;26.52;;
41323;SDS011;27073;51.128;4.220;2023-01-24T02:17:42;30.08;;;25.73;;
41323;SDS011;27073;51.128;4.220;2023-01-24T02:25:25;30.27;;;26.88;;
41323;SDS011;27073;51.128;4.220;2023-01-24T02:28:09;32.20;;;27.65;;
41323;SDS011;27073;51.128;4.220;2023-01-24T02:30:36;33.30;;;28.65;;
41323;SDS011;27073;51.128;4.220;2023-01-24T02:33:13;36.03;;;29.98;;
41323;SDS011;27073;51.128;4.220;2023-01-24T02:35:41;35.45;;;30.35;;
41323;SDS011;27073;51.128;4.220;2023-01-24T02:38:18;34.15;;;30.45;;
41323;SDS011;27073;51.128;4.220;2023-01-24T02:40:48;35.10;;;30.55;;
41323;SDS011;27073;51.128;4.220;2023-01-24T02:43:19;37.25;;;30.83;;
41323;SDS011;27073;51.128;4.220;2023-01-24T02:45:48;34.60;;;29.30;;
41323;SDS011;27073;51.128;4.220;2023-01-24T02:48:13;35.97;;;30.08;;
41323;SDS011;27073;51.128;4.220;2023-01-24T02:50:39;33.85;;;30.08;;
41323;SDS011;27073;51.128;4.220;2023-01-24T02:53:24;34.05;;;30.13;;
41323;SDS011;27073;51.128;4.220;2023-01-24T02:56:01;35.95;;;30.50;;
41323;SDS011;27073;51.128;4.220;2023-01-24T02:58:48;35.80;;;29.88;;
41323;SDS011;27073;51.128;4.220;2023-01-24T03:01:15;35.47;;;30.90;;
41323;SDS011;27073;51.128;4.220;2023-01-24T03:03:46;34.63;;;30.83;;
41323;SDS011;27073;51.128;4.220;2023-01-24T03:06:14;37.25;;;31.83;;
41323;SDS011;27073;51.128;4.220;2023-01-24T03:08:41;35.28;;;30.73;;
41323;SDS011;27073;51.128;4.220;2023-01-24T03:11:16;32.83;;;29.17;;
41323;SDS011;27073;51.128;4.220;2023-01-24T03:13:42;35.47;;;31.40;;
41323;SDS011;27073;51.128;4.220;2023-01-24T03:16:27;33.42;;;27.48;;
41323;SDS011;27073;51.128;4.220;2023-01-24T03:19:12;30.58;;;27.25;;
41323;SDS011;27073;51.128;4.220;2023-01-24T03:21:58;31.48;;;27.52;;
41323;SDS011;27073;51.128;4.220;2023-01-24T03:24:42;32.17;;;27.33;;
41323;SDS011;27073;51.128;4.220;2023-01-24T03:27:26;30.65;;;27.17;;
41323;SDS011;27073;51.128;4.220;2023-01-24T03:30:16;34.33;;;29.42;;
41323;SDS011;27073;51.128;4.220;2023-01-24T03:33:00;32.88;;;29.27;;
41323;SDS011;27073;51.128;4.220;2023-01-24T03:35:47;31.83;;;28.20;;
41323;SDS011;27073;51.128;4.220;2023-01-24T03:38:22;33.33;;;28.90;;
41323;SDS011;27073;51.128;4.220;2023-01-24T03:41:09;37.17;;;28.85;;
41323;SDS011;27073;51.128;4.220;2023-01-24T03:43:36;32.20;;;28.70;;
41323;SDS011;27073;51.128;4.220;2023-01-24T03:46:03;32.47;;;27.95;;
41323;SDS011;27073;51.128;4.220;2023-01-24T03:48:43;30.95;;;26.42;;
41323;SDS011;27073;51.128;4.220;2023-01-24T03:51:09;32.55;;;27.25;;
41323;SDS011;27073;51.128;4.220;2023-01-24T03:53:53;32.80;;;26.90;;
41323;SDS011;27073;51.128;4.220;2023-01-24T03:56:23;28.92;;;25.42;;
41323;SDS011;27073;51.128;4.220;2023-01-24T03:58:55;30.10;;;26.73;;
41323;SDS011;27073;51.128;4.220;2023-01-24T04:01:23;30.65;;;27.20;;
41323;SDS011;27073;51.128;4.220;2023-01-24T04:04:04;30.85;;;27.25;;
41323;SDS011;27073;51.128;4.220;2023-01-24T04:06:31;29.98;;;26.52;;
41323;SDS011;27073;51.128;4.220;2023-01-24T04:08:59;29.33;;;26.13;;
41323;SDS011;27073;51.128;4.220;2023-01-24T04:11:25;27.60;;;23.55;;
41323;SDS011;27073;51.128;4.220;2023-01-24T04:14:02;27.38;;;23.50;;
41323;SDS011;27073;51.128;4.220;2023-01-24T04:16:28;27.77;;;22.38;;
41323;SDS011;27073;51.128;4.220;2023-01-24T04:19:06;30.00;;;23.38;;
41323;SDS011;27073;51.128;4.220;2023-01-24T04:21:33;25.13;;;22.00;;
41323;SDS011;27073;51.128;4.220;2023-01-24T04:24:05;25.90;;;22.95;;
41323;SDS011;27073;51.128;4.220;2023-01-24T04:26:33;25.85;;;22.17;;
41323;SDS011;27073;51.128;4.220;2023-01-24T04:29:01;24.92;;;21.70;;
41323;SDS011;27073;51.128;4.220;2023-01-24T04:31:27;27.30;;;23.20;;
41323;SDS011;27073;51.128;4.220;2023-01-24T04:34:13;29.05;;;23.65;;
41323;SDS011;27073;51.128;4.220;2023-01-24T04:36:39;28.40;;;24.27;;
41323;SDS011;27073;51.128;4.220;2023-01-24T04:39:06;28.88;;;24.63;;
41323;SDS011;27073;51.128;4.220;2023-01-24T04:41:39;28.95;;;23.83;;
41323;SDS011;27073;51.128;4.220;2023-01-24T04:44:05;27.95;;;24.92;;
41323;SDS011;27073;51.128;4.220;2023-01-24T04:46:31;27.80;;;24.17;;
41323;SDS011;27073;51.128;4.220;2023-01-24T04:48:58;28.30;;;24.60;;
41323;SDS011;27073;51.128;4.220;2023-01-24T04:51:39;26.88;;;23.50;;
41323;SDS011;27073;51.128;4.220;2023-01-24T04:54:09;29.23;;;24.58;;
41323;SDS011;27073;51.128;4.220;2023-01-24T04:56:36;27.98;;;24.23;;
41323;SDS011;27073;51.128;4.220;2023-01-24T04:59:03;28.25;;;24.27;;
41323;SDS011;27073;51.128;4.220;2023-01-24T05:01:31;29.13;;;26.00;;
41323;SDS011;27073;51.128;4.220;2023-01-24T05:04:07;28.30;;;25.23;;
41323;SDS011;27073;51.128;4.220;2023-01-24T05:06:34;29.45;;;26.08;;
41323;SDS011;27073;51.128;4.220;2023-01-24T05:09:00;29.95;;;26.75;;
41323;SDS011;27073;51.128;4.220;2023-01-24T05:11:36;31.13;;;26.33;;
41323;SDS011;27073;51.128;4.220;2023-01-24T05:14:04;27.95;;;24.38;;
41323;SDS011;27073;51.128;4.220;2023-01-24T05:16:30;26.25;;;22.85;;
41323;SDS011;27073;51.128;4.220;2023-01-24T05:18:57;25.70;;;22.02;;
41323;SDS011;27073;51.128;4.220;2023-01-24T05:21:23;26.23;;;23.40;;
41323;SDS011;27073;51.128;4.220;2023-01-24T05:23:51;27.05;;;24.17;;
41323;SDS011;27073;51.128;4.220;2023-01-24T05:26:19;29.70;;;24.75;;
41323;SDS011;27073;51.128;4.220;2023-01-24T05:28:47;30.63;;;25.98;;
41323;SDS011;27073;51.128;4.220;2023-01-24T05:31:14;30.33;;;25.80;;
41323;SDS011;27073;51.128;4.220;2023-01-24T05:33:41;29.52;;;24.88;;
41323;SDS011;27073;51.128;4.220;2023-01-24T05:36:09;28.25;;;24.67;;
41323;SDS011;27073;51.128;4.220;2023-01-24T05:38:37;23.17;;;19.98;;
41323;SDS011;27073;51.128;4.220;2023-01-24T05:41:05;24.75;;;22.05;;
41323;SDS011;27073;51.128;4.220;2023-01-24T05:43:33;28.55;;;24.65;;
41323;SDS011;27073;51.128;4.220;2023-01-24T05:46:00;27.70;;;24.52;;
41323;SDS011;27073;51.128;4.220;2023-01-24T05:48:32;29.58;;;23.95;;
41323;SDS011;27073;51.128;4.220;2023-01-24T05:50:59;27.45;;;23.30;;
41323;SDS011;27073;51.128;4.220;2023-01-24T05:53:31;25.48;;;22.77;;
41323;SDS011;27073;51.128;4.220;2023-01-24T05:55:59;26.92;;;24.00;;
41323;SDS011;27073;51.128;4.220;2023-01-24T05:58:29;29.48;;;25.65;;
41323;SDS011;27073;51.128;4.220;2023-01-24T06:01:16;29.55;;;25.63;;
41323;SDS011;27073;51.128;4.220;2023-01-24T06:03:45;31.90;;;27.27;;
41323;SDS011;27073;51.128;4.220;2023-01-24T06:06:14;31.83;;;26.77;;
41323;SDS011;27073;51.128;4.220;2023-01-24T06:08:45;29.23;;;25.08;;
41323;SDS011;27073;51.128;4.220;2023-01-24T06:11:13;27.35;;;24.38;;
41323;SDS011;27073;51.128;4.220;2023-01-24T06:13:41;27.90;;;24.53;;
41323;SDS011;27073;51.128;4.220;2023-01-24T06:16:12;25.83;;;22.65;;
41323;SDS011;27073;51.128;4.220;2023-01-24T06:18:39;28.85;;;24.52;;
41323;SDS011;27073;51.128;4.220;2023-01-24T06:21:07;28.58;;;23.35;;
41323;SDS011;27073;51.128;4.220;2023-01-24T06:23:34;26.27;;;22.83;;
41323;SDS011;27073;51.128;4.220;2023-01-24T06:26:03;30.70;;;25.90;;
41323;SDS011;27073;51.128;4.220;2023-01-24T06:28:29;32.60;;;27.88;;
41323;SDS011;27073;51.128;4.220;2023-01-24T06:31:03;36.17;;;31.15;;
41323;SDS011;27073;51.128;4.220;2023-01-24T06:36:24;35.75;;;29.27;;
41323;SDS011;27073;51.128;4.220;2023-01-24T06:38:53;30.80;;;26.80;;
41323;SDS011;27073;51.128;4.220;2023-01-24T06:41:19;34.08;;;29.08;;
41323;SDS011;27073;51.128;4.220;2023-01-24T06:43:45;33.55;;;27.60;;
41323;SDS011;27073;51.128;4.220;2023-01-24T06:46:11;36.50;;;31.23;;
41323;SDS011;27073;51.128;4.220;2023-01-24T06:48:38;38.08;;;31.55;;
41323;SDS011;27073;51.128;4.220;2023-01-24T06:51:08;31.95;;;28.42;;
41323;SDS011;27073;51.128;4.220;2023-01-24T06:53:39;36.30;;;29.42;;
41323;SDS011;27073;51.128;4.220;2023-01-24T06:56:05;37.83;;;30.10;;
41323;SDS011;27073;51.128;4.220;2023-01-24T06:58:32;33.75;;;28.70;;
41323;SDS011;27073;51.128;4.220;2023-01-24T07:00:59;36.08;;;30.00;;
41323;SDS011;27073;51.128;4.220;2023-01-24T07:03:25;34.40;;;29.30;;
41323;SDS011;27073;51.128;4.220;2023-01-24T07:05:51;35.83;;;31.63;;
41323;SDS011;27073;51.128;4.220;2023-01-24T07:08:16;37.85;;;31.05;;
41323;SDS011;27073;51.128;4.220;2023-01-24T07:10:45;37.20;;;32.22;;
41323;SDS011;27073;51.128;4.220;2023-01-24T07:13:11;37.22;;;30.92;;
41323;SDS011;27073;51.128;4.220;2023-01-24T07:15:37;38.58;;;33.85;;
41323;SDS011;27073;51.128;4.220;2023-01-24T07:18:04;39.22;;;31.98;;
41323;SDS011;27073;51.128;4.220;2023-01-24T07:20:34;37.90;;;33.25;;
41323;SDS011;27073;51.128;4.220;2023-01-24T07:23:00;39.47;;;33.00;;
41323;SDS011;27073;51.128;4.220;2023-01-24T07:25:26;44.40;;;34.22;;
41323;SDS011;27073;51.128;4.220;2023-01-24T07:27:53;40.53;;;34.08;;
41323;SDS011;27073;51.128;4.220;2023-01-24T07:30:19;39.22;;;34.15;;
41323;SDS011;27073;51.128;4.220;2023-01-24T07:32:45;38.65;;;32.78;;
41323;SDS011;27073;51.128;4.220;2023-01-24T07:35:10;40.45;;;34.22;;
41323;SDS011;27073;51.128;4.220;2023-01-24T07:37:36;41.10;;;32.92;;
41323;SDS011;27073;51.128;4.220;2023-01-24T07:40:02;40.20;;;34.13;;
41323;SDS011;27073;51.128;4.220;2023-01-24T07:42:29;41.67;;;33.85;;
41323;SDS011;27073;51.128;4.220;2023-01-24T07:44:54;38.72;;;33.05;;
41323;SDS011;27073;51.128;4.220;2023-01-24T07:47:22;39.85;;;33.50;;
41323;SDS011;27073;51.128;4.220;2023-01-24T07:49:49;37.08;;;31.48;;
41323;SDS011;27073;51.128;4.220;2023-01-24T07:52:15;39.03;;;31.80;;
41323;SDS011;27073;51.128;4.220;2023-01-24T07:54:40;39.88;;;30.23;;
41323;SDS011;27073;51.128;4.220;2023-01-24T07:57:06;38.28;;;30.95;;
41323;SDS011;27073;51.128;4.220;2023-01-24T07:59:33;36.85;;;31.92;;
41323;SDS011;27073;51.128;4.220;2023-01-24T08:01:58;37.83;;;32.45;;
41323;SDS011;27073;51.128;4.220;2023-01-24T08:04:24;36.42;;;31.98;;
41323;SDS011;27073;51.128;4.220;2023-01-24T08:06:50;38.38;;;31.95;;
41323;SDS011;27073;51.128;4.220;2023-01-24T08:09:34;38.25;;;31.30;;
41323;SDS011;27073;51.128;4.220;2023-01-24T08:12:00;37.63;;;29.10;;
41323;SDS011;27073;51.128;4.220;2023-01-24T08:14:26;38.00;;;32.08;;
41323;SDS011;27073;51.128;4.220;2023-01-24T08:16:52;39.15;;;31.00;;
41323;SDS011;27073;51.128;4.220;2023-01-24T08:19:19;35.35;;;30.23;;
41323;SDS011;27073;51.128;4.220;2023-01-24T08:21:45;32.67;;;28.25;;
41323;SDS011;27073;51.128;4.220;2023-01-24T08:24:12;33.58;;;28.75;;
41323;SDS011;27073;51.128;4.220;2023-01-24T08:26:38;32.88;;;27.88;;
41323;SDS011;27073;51.128;4.220;2023-01-24T08:29:04;32.90;;;28.48;;
41323;SDS011;27073;51.128;4.220;2023-01-24T08:31:29;36.47;;;30.17;;
41323;SDS011;27073;51.128;4.220;2023-01-24T08:33:55;34.65;;;29.40;;
41323;SDS011;27073;51.128;4.220;2023-01-24T08:36:21;35.15;;;29.92;;
41323;SDS011;27073;51.128;4.220;2023-01-24T08:38:48;34.20;;;30.48;;
41323;SDS011;27073;51.128;4.220;2023-01-24T08:41:13;33.50;;;28.52;;
41323;SDS011;27073;51.128;4.220;2023-01-24T08:43:39;35.50;;;31.10;;
41323;SDS011;27073;51.128;4.220;2023-01-24T08:46:05;36.97;;;32.00;;
41323;SDS011;27073;51.128;4.220;2023-01-24T08:48:30;36.95;;;31.80;;
41323;SDS011;27073;51.128;4.220;2023-01-24T08:50:57;36.75;;;30.55;;
41323;SDS011;27073;51.128;4.220;2023-01-24T08:53:23;34.35;;;30.45;;
41323;SDS011;27073;51.128;4.220;2023-01-24T08:55:49;34.78;;;30.50;;
41323;SDS011;27073;51.128;4.220;2023-01-24T08:58:15;32.90;;;29.38;;
41323;SDS011;27073;51.128;4.220;2023-01-24T09:00:41;35.10;;;29.73;;
41323;SDS011;27073;51.128;4.220;2023-01-24T09:03:08;36.40;;;31.30;;
41323;SDS011;27073;51.128;4.220;2023-01-24T09:05:41;35.58;;;30.20;;
41323;SDS011;27073;51.128;4.220;2023-01-24T09:08:07;40.38;;;34.38;;
41323;SDS011;27073;51.128;4.220;2023-01-24T09:10:37;40.42;;;34.60;;
41323;SDS011;27073;51.128;4.220;2023-01-24T09:13:03;38.78;;;30.83;;
41323;SDS011;27073;51.128;4.220;2023-01-24T09:15:29;36.13;;;31.35;;
41323;SDS011;27073;51.128;4.220;2023-01-24T09:17:59;39.03;;;32.22;;
41323;SDS011;27073;51.128;4.220;2023-01-24T09:20:27;36.08;;;30.15;;
41323;SDS011;27073;51.128;4.220;2023-01-24T09:22:52;37.78;;;31.30;;
41323;SDS011;27073;51.128;4.220;2023-01-24T09:25:18;34.58;;;27.98;;
41323;SDS011;27073;51.128;4.220;2023-01-24T09:27:44;30.90;;;25.45;;
41323;SDS011;27073;51.128;4.220;2023-01-24T09:30:16;27.10;;;22.80;;
41323;SDS011;27073;51.128;4.220;2023-01-24T09:32:43;36.05;;;25.83;;
41323;SDS011;27073;51.128;4.220;2023-01-24T09:35:09;31.05;;;25.90;;
41323;SDS011;27073;51.128;4.220;2023-01-24T09:37:34;34.55;;;28.88;;
41323;SDS011;27073;51.128;4.220;2023-01-24T09:40:00;35.10;;;29.60;;
41323;SDS011;27073;51.128;4.220;2023-01-24T09:47:51;31.27;;;25.10;;
41323;SDS011;27073;51.128;4.220;2023-01-24T09:50:29;30.08;;;24.90;;
41323;SDS011;27073;51.128;4.220;2023-01-24T09:53:13;28.58;;;25.25;;
41323;SDS011;27073;51.128;4.220;2023-01-24T09:55:49;30.70;;;23.85;;
41323;SDS011;27073;51.128;4.220;2023-01-24T09:58:30;27.75;;;24.20;;
41323;SDS011;27073;51.128;4.220;2023-01-24T10:01:02;25.55;;;22.10;;
41323;SDS011;27073;51.128;4.220;2023-01-24T10:03:31;26.73;;;22.08;;
41323;SDS011;27073;51.128;4.220;2023-01-24T10:05:59;27.50;;;22.95;;
41323;SDS011;27073;51.128;4.220;2023-01-24T10:11:32;26.38;;;21.90;;
41323;SDS011;27073;51.128;4.220;2023-01-24T10:22:51;27.50;;;20.60;;
41323;SDS011;27073;51.128;4.220;2023-01-24T10:25:29;26.70;;;21.00;;
41323;SDS011;27073;51.128;4.220;2023-01-24T10:28:22;26.25;;;20.88;;
41323;SDS011;27073;51.128;4.220;2023-01-24T10:33:20;23.58;;;20.25;;
41323;SDS011;27073;51.128;4.220;2023-01-24T10:35:51;24.88;;;20.52;;
41323;SDS011;27073;51.128;4.220;2023-01-24T10:38:19;28.02;;;19.73;;
41323;SDS011;27073;51.128;4.220;2023-01-24T10:43:46;23.98;;;19.35;;
41323;SDS011;27073;51.128;4.220;2023-01-24T10:46:53;25.98;;;21.30;;
41323;SDS011;27073;51.128;4.220;2023-01-24T10:49:19;25.05;;;20.35;;
41323;SDS011;27073;51.128;4.220;2023-01-24T10:52:22;22.17;;;19.20;;
41323;SDS011;27073;51.128;4.220;2023-01-24T10:54:46;23.38;;;19.70;;
41323;SDS011;27073;51.128;4.220;2023-01-24T10:57:19;23.02;;;19.65;;
41323;SDS011;27073;51.128;4.220;2023-01-24T10:59:55;24.27;;;20.55;;
41323;SDS011;27073;51.128;4.220;2023-01-24T11:02:25;26.10;;;20.73;;
41323;SDS011;27073;51.128;4.220;2023-01-24T11:04:52;24.40;;;19.95;;
41323;SDS011;27073;51.128;4.220;2023-01-24T11:07:29;26.38;;;21.35;;
41323;SDS011;27073;51.128;4.220;2023-01-24T11:10:01;29.85;;;20.30;;
41323;SDS011;27073;51.128;4.220;2023-01-24T11:12:55;22.65;;;19.13;;
41323;SDS011;27073;51.128;4.220;2023-01-24T11:15:27;24.42;;;19.35;;
41323;SDS011;27073;51.128;4.220;2023-01-24T11:17:57;23.85;;;18.95;;
41323;SDS011;27073;51.128;4.220;2023-01-24T11:20:43;23.10;;;19.98;;
41323;SDS011;27073;51.128;4.220;2023-01-24T11:25:56;27.05;;;21.63;;
41323;SDS011;27073;51.128;4.220;2023-01-24T11:28:33;25.30;;;20.30;;
41323;SDS011;27073;51.128;4.220;2023-01-24T11:31:35;24.10;;;19.08;;
41323;SDS011;27073;51.128;4.220;2023-01-24T11:36:39;28.63;;;24.88;;
41323;SDS011;27073;51.128;4.220;2023-01-24T11:39:28;50.47;;;34.22;;
41323;SDS011;27073;51.128;4.220;2023-01-24T11:47:32;32.08;;;25.83;;
41323;SDS011;27073;51.128;4.220;2023-01-24T11:56:40;24.48;;;20.20;;
41323;SDS011;27073;51.128;4.220;2023-01-24T12:02:01;25.85;;;20.42;;
41323;SDS011;27073;51.128;4.220;2023-01-24T12:12:50;24.13;;;19.48;;
41323;SDS011;27073;51.128;4.220;2023-01-24T12:21:48;21.05;;;18.42;;
41323;SDS011;27073;51.128;4.220;2023-01-24T12:24:20;26.63;;;19.70;;
41323;SDS011;27073;51.128;4.220;2023-01-24T12:26:52;24.00;;;20.45;;
41323;SDS011;27073;51.128;4.220;2023-01-24T12:29:24;23.88;;;18.50;;
41323;SDS011;27073;51.128;4.220;2023-01-24T12:32:07;26.63;;;20.25;;
41323;SDS011;27073;51.128;4.220;2023-01-24T12:35:09;25.45;;;21.05;;
41323;SDS011;27073;51.128;4.220;2023-01-24T12:37:51;25.23;;;21.15;;
41323;SDS011;27073;51.128;4.220;2023-01-24T12:41:01;28.10;;;22.77;;
41323;SDS011;27073;51.128;4.220;2023-01-24T12:43:53;34.88;;;27.77;;
41323;SDS011;27073;51.128;4.220;2023-01-24T12:46:47;38.08;;;30.00;;
41323;SDS011;27073;51.128;4.220;2023-01-24T13:00:27;30.17;;;25.60;;
41323;SDS011;27073;51.128;4.220;2023-01-24T13:06:09;31.92;;;23.88;;
41323;SDS011;27073;51.128;4.220;2023-01-24T13:11:27;30.15;;;24.80;;
41323;SDS011;27073;51.128;4.220;2023-01-24T13:14:07;30.77;;;24.98;;
41323;SDS011;27073;51.128;4.220;2023-01-24T13:30:26;26.00;;;20.35;;
41323;SDS011;27073;51.128;4.220;2023-01-24T13:33:17;25.17;;;20.95;;
41323;SDS011;27073;51.128;4.220;2023-01-24T13:35:49;25.33;;;22.25;;
41323;SDS011;27073;51.128;4.220;2023-01-24T13:38:27;26.00;;;20.30;;
41323;SDS011;27073;51.128;4.220;2023-01-24T13:41:05;22.98;;;19.98;;
41323;SDS011;27073;51.128;4.220;2023-01-24T13:51:56;23.88;;;19.35;;
41323;SDS011;27073;51.128;4.220;2023-01-24T13:59:37;27.70;;;21.42;;
41323;SDS011;27073;51.128;4.220;2023-01-24T14:02:54;27.20;;;21.38;;
41323;SDS011;27073;51.128;4.220;2023-01-24T14:04:56;24.23;;;19.23;;
41323;SDS011;27073;51.128;4.220;2023-01-24T14:07:29;21.83;;;17.52;;
41323;SDS011;27073;51.128;4.220;2023-01-24T14:10:02;22.67;;;19.23;;
41323;SDS011;27073;51.128;4.220;2023-01-24T14:12:31;26.25;;;18.50;;
41323;SDS011;27073;51.128;4.220;2023-01-24T14:20:14;21.75;;;17.50;;
41323;SDS011;27073;51.128;4.220;2023-01-24T14:22:50;22.00;;;18.38;;
41323;SDS011;27073;51.128;4.220;2023-01-24T14:30:55;21.95;;;17.80;;
41323;SDS011;27073;51.128;4.220;2023-01-24T14:33:32;23.83;;;17.85;;
41323;SDS011;27073;51.128;4.220;2023-01-24T14:42:04;24.52;;;19.67;;
41323;SDS011;27073;51.128;4.220;2023-01-24T14:44:37;24.70;;;18.55;;
41323;SDS011;27073;51.128;4.220;2023-01-24T14:49:45;23.55;;;19.70;;
41323;SDS011;27073;51.128;4.220;2023-01-24T14:54:46;27.23;;;21.45;;
41323;SDS011;27073;51.128;4.220;2023-01-24T15:02:38;25.10;;;20.30;;
41323;SDS011;27073;51.128;4.220;2023-01-24T15:05:21;21.98;;;18.10;;
41323;SDS011;27073;51.128;4.220;2023-01-24T15:07:52;22.05;;;18.75;;
41323;SDS011;27073;51.128;4.220;2023-01-24T15:10:22;23.98;;;19.27;;
41323;SDS011;27073;51.128;4.220;2023-01-24T15:12:51;26.38;;;21.70;;
41323;SDS011;27073;51.128;4.220;2023-01-24T15:15:18;25.45;;;21.58;;
41323;SDS011;27073;51.128;4.220;2023-01-24T15:17:47;25.58;;;19.60;;
41323;SDS011;27073;51.128;4.220;2023-01-24T15:20:19;23.65;;;19.67;;
41323;SDS011;27073;51.128;4.220;2023-01-24T15:22:50;22.60;;;19.75;;
41323;SDS011;27073;51.128;4.220;2023-01-24T15:25:22;23.88;;;20.40;;
41323;SDS011;27073;51.128;4.220;2023-01-24T15:27:52;24.73;;;19.40;;
41323;SDS011;27073;51.128;4.220;2023-01-24T15:30:26;27.35;;;21.70;;
41323;SDS011;27073;51.128;4.220;2023-01-24T15:43:33;27.27;;;22.05;;
41323;SDS011;27073;51.128;4.220;2023-01-24T15:52:01;24.23;;;20.00;;
41323;SDS011;27073;51.128;4.220;2023-01-24T15:54:28;23.17;;;20.40;;
41323;SDS011;27073;51.128;4.220;2023-01-24T15:56:55;24.63;;;21.08;;
41323;SDS011;27073;51.128;4.220;2023-01-24T15:59:24;36.08;;;29.88;;
41323;SDS011;27073;51.128;4.220;2023-01-24T16:01:50;38.60;;;33.55;;
41323;SDS011;27073;51.128;4.220;2023-01-24T16:04:17;41.17;;;35.75;;
41323;SDS011;27073;51.128;4.220;2023-01-24T16:06:45;39.03;;;30.85;;
41323;SDS011;27073;51.128;4.220;2023-01-24T16:09:11;28.55;;;24.85;;
41323;SDS011;27073;51.128;4.220;2023-01-24T16:11:38;34.38;;;27.00;;
41323;SDS011;27073;51.128;4.220;2023-01-24T16:14:07;31.80;;;26.17;;
41323;SDS011;27073;51.128;4.220;2023-01-24T16:16:37;30.42;;;25.85;;
41323;SDS011;27073;51.128;4.220;2023-01-24T16:19:08;29.33;;;25.55;;
41323;SDS011;27073;51.128;4.220;2023-01-24T16:21:42;32.97;;;26.20;;
41323;SDS011;27073;51.128;4.220;2023-01-24T16:24:09;27.95;;;24.50;;
41323;SDS011;27073;51.128;4.220;2023-01-24T16:26:35;27.38;;;24.45;;
41323;SDS011;27073;51.128;4.220;2023-01-24T16:29:01;28.83;;;25.05;;
41323;SDS011;27073;51.128;4.220;2023-01-24T16:31:31;30.60;;;25.52;;
41323;SDS011;27073;51.128;4.220;2023-01-24T16:33:59;32.17;;;26.17;;
41323;SDS011;27073;51.128;4.220;2023-01-24T16:36:26;29.23;;;26.13;;
41323;SDS011;27073;51.128;4.220;2023-01-24T16:38:53;30.63;;;27.33;;
41323;SDS011;27073;51.128;4.220;2023-01-24T16:41:22;31.65;;;27.08;;
41323;SDS011;27073;51.128;4.220;2023-01-24T16:43:48;31.58;;;26.63;;
41323;SDS011;27073;51.128;4.220;2023-01-24T16:46:17;33.05;;;28.60;;
41323;SDS011;27073;51.128;4.220;2023-01-24T16:48:46;30.77;;;27.00;;
41323;SDS011;27073;51.128;4.220;2023-01-24T16:51:12;69.15;;;49.17;;
41323;SDS011;27073;51.128;4.220;2023-01-24T16:53:40;57.22;;;44.30;;
41323;SDS011;27073;51.128;4.220;2023-01-24T16:56:06;44.22;;;36.70;;
41323;SDS011;27073;51.128;4.220;2023-01-24T16:58:32;38.60;;;33.33;;
41323;SDS011;27073;51.128;4.220;2023-01-24T17:00:58;49.28;;;41.38;;
41323;SDS011;27073;51.128;4.220;2023-01-24T17:03:24;46.20;;;40.85;;
41323;SDS011;27073;51.128;4.220;2023-01-24T17:05:50;43.10;;;37.70;;
41323;SDS011;27073;51.128;4.220;2023-01-24T17:08:15;38.40;;;32.95;;
41323;SDS011;27073;51.128;4.220;2023-01-24T17:10:41;35.42;;;31.45;;
41323;SDS011;27073;51.128;4.220;2023-01-24T17:13:07;36.08;;;32.10;;
41323;SDS011;27073;51.128;4.220;2023-01-24T17:15:37;37.05;;;32.65;;
41323;SDS011;27073;51.128;4.220;2023-01-24T17:18:04;36.40;;;32.47;;
41323;SDS011;27073;51.128;4.220;2023-01-24T17:20:32;38.78;;;34.58;;